sensor_id;sensor_type;location;lat;lon;timestamp;P1;durP1;ratioP1;P2;durP2;ratioP2
38083;SDS011;23894;51.466;7.444;2022-08-03T00:04:10;5.95;;;3.47;;
38083;SDS011;23894;51.466;7.444;2022-08-03T00:06:13;6.72;;;3.40;;
38083;SDS011;23894;51.466;7.444;2022-08-03T00:08:19;5.53;;;3.47;;
38083;SDS011;23894;51.466;7.444;2022-08-03T00:10:27;6.90;;;3.70;;
38083;SDS011;23894;51.466;7.444;2022-08-03T00:12:30;6.82;;;3.60;;
38083;SDS011;23894;51.466;7.444;2022-08-03T00:14:32;6.13;;;3.22;;
38083;SDS011;23894;51.466;7.444;2022-08-03T00:16:33;6.45;;;3.50;;
38083;SDS011;23894;51.466;7.444;2022-08-03T00:18:34;7.72;;;3.65;;
38083;SDS011;23894;51.466;7.444;2022-08-03T00:22:36;6.25;;;3.40;;
38083;SDS011;23894;51.466;7.444;2022-08-03T00:24:37;7.70;;;3.80;;
38083;SDS011;23894;51.466;7.444;2022-08-03T00:28:39;8.38;;;3.72;;
38083;SDS011;23894;51.466;7.444;2022-08-03T00:32:40;5.83;;;3.70;;
38083;SDS011;23894;51.466;7.444;2022-08-03T00:36:41;7.27;;;3.60;;
38083;SDS011;23894;51.466;7.444;2022-08-03T00:40:42;7.47;;;3.70;;
38083;SDS011;23894;51.466;7.444;2022-08-03T00:43:01;6.53;;;3.72;;
38083;SDS011;23894;51.466;7.444;2022-08-03T00:45:03;7.40;;;3.72;;
38083;SDS011;23894;51.466;7.444;2022-08-03T00:47:03;6.47;;;3.55;;
38083;SDS011;23894;51.466;7.444;2022-08-03T00:49:04;7.40;;;4.03;;
38083;SDS011;23894;51.466;7.444;2022-08-03T00:53:06;7.03;;;3.65;;
38083;SDS011;23894;51.466;7.444;2022-08-03T00:55:09;5.95;;;3.60;;
38083;SDS011;23894;51.466;7.444;2022-08-03T00:57:10;8.10;;;3.50;;
38083;SDS011;23894;51.466;7.444;2022-08-03T01:01:11;6.07;;;3.50;;
38083;SDS011;23894;51.466;7.444;2022-08-03T01:05:13;6.55;;;3.78;;
38083;SDS011;23894;51.466;7.444;2022-08-03T01:09:22;6.05;;;3.65;;
38083;SDS011;23894;51.466;7.444;2022-08-03T01:11:54;6.38;;;4.00;;
38083;SDS011;23894;51.466;7.444;2022-08-03T01:16:36;6.75;;;3.78;;
38083;SDS011;23894;51.466;7.444;2022-08-03T01:18:52;6.57;;;4.28;;
38083;SDS011;23894;51.466;7.444;2022-08-03T01:20:59;8.07;;;3.75;;
38083;SDS011;23894;51.466;7.444;2022-08-03T01:23:09;9.18;;;4.10;;
38083;SDS011;23894;51.466;7.444;2022-08-03T01:30:19;6.75;;;3.97;;
38083;SDS011;23894;51.466;7.444;2022-08-03T01:32:27;8.15;;;3.60;;
38083;SDS011;23894;51.466;7.444;2022-08-03T01:35:01;8.00;;;3.70;;
38083;SDS011;23894;51.466;7.444;2022-08-03T01:37:05;6.35;;;3.78;;
38083;SDS011;23894;51.466;7.444;2022-08-03T01:39:08;10.05;;;3.85;;
38083;SDS011;23894;51.466;7.444;2022-08-03T01:41:11;8.07;;;4.30;;
38083;SDS011;23894;51.466;7.444;2022-08-03T01:43:15;7.75;;;3.80;;
38083;SDS011;23894;51.466;7.444;2022-08-03T01:45:18;7.93;;;3.67;;
38083;SDS011;23894;51.466;7.444;2022-08-03T01:47:21;6.22;;;3.83;;
38083;SDS011;23894;51.466;7.444;2022-08-03T01:49:24;7.50;;;4.05;;
38083;SDS011;23894;51.466;7.444;2022-08-03T01:51:27;6.50;;;3.67;;
38083;SDS011;23894;51.466;7.444;2022-08-03T01:53:30;7.63;;;3.65;;
38083;SDS011;23894;51.466;7.444;2022-08-03T01:55:32;8.68;;;4.22;;
38083;SDS011;23894;51.466;7.444;2022-08-03T01:57:37;7.53;;;3.55;;
38083;SDS011;23894;51.466;7.444;2022-08-03T01:59:42;7.07;;;3.78;;
38083;SDS011;23894;51.466;7.444;2022-08-03T02:01:44;6.53;;;3.33;;
38083;SDS011;23894;51.466;7.444;2022-08-03T02:03:46;6.32;;;3.38;;
38083;SDS011;23894;51.466;7.444;2022-08-03T02:05:48;7.18;;;3.17;;
38083;SDS011;23894;51.466;7.444;2022-08-03T02:07:51;8.20;;;3.80;;
38083;SDS011;23894;51.466;7.444;2022-08-03T02:09:53;7.28;;;3.55;;
38083;SDS011;23894;51.466;7.444;2022-08-03T02:11:54;6.28;;;3.67;;
38083;SDS011;23894;51.466;7.444;2022-08-03T02:13:57;6.80;;;3.53;;
38083;SDS011;23894;51.466;7.444;2022-08-03T02:16:02;6.90;;;3.70;;
38083;SDS011;23894;51.466;7.444;2022-08-03T02:18:04;5.93;;;3.60;;
38083;SDS011;23894;51.466;7.444;2022-08-03T02:20:07;5.55;;;3.42;;
38083;SDS011;23894;51.466;7.444;2022-08-03T02:22:11;6.00;;;3.63;;
38083;SDS011;23894;51.466;7.444;2022-08-03T02:24:12;6.90;;;3.63;;
38083;SDS011;23894;51.466;7.444;2022-08-03T02:28:17;7.63;;;3.83;;
38083;SDS011;23894;51.466;7.444;2022-08-03T02:30:21;7.07;;;3.40;;
38083;SDS011;23894;51.466;7.444;2022-08-03T02:32:30;6.18;;;3.35;;
38083;SDS011;23894;51.466;7.444;2022-08-03T02:34:34;6.38;;;3.40;;
38083;SDS011;23894;51.466;7.444;2022-08-03T02:36:36;6.47;;;3.40;;
38083;SDS011;23894;51.466;7.444;2022-08-03T02:38:40;5.95;;;3.63;;
38083;SDS011;23894;51.466;7.444;2022-08-03T02:40:42;8.70;;;3.95;;
38083;SDS011;23894;51.466;7.444;2022-08-03T02:42:45;6.00;;;3.70;;
38083;SDS011;23894;51.466;7.444;2022-08-03T02:44:48;8.77;;;4.05;;
38083;SDS011;23894;51.466;7.444;2022-08-03T02:46:53;8.57;;;3.80;;
38083;SDS011;23894;51.466;7.444;2022-08-03T02:48:56;6.63;;;3.53;;
38083;SDS011;23894;51.466;7.444;2022-08-03T02:50:59;6.18;;;3.50;;
38083;SDS011;23894;51.466;7.444;2022-08-03T02:53:02;7.80;;;3.80;;
38083;SDS011;23894;51.466;7.444;2022-08-03T02:55:04;7.30;;;3.70;;
38083;SDS011;23894;51.466;7.444;2022-08-03T02:57:08;6.57;;;3.70;;
38083;SDS011;23894;51.466;7.444;2022-08-03T02:59:09;7.45;;;4.25;;
38083;SDS011;23894;51.466;7.444;2022-08-03T03:01:11;8.60;;;4.00;;
38083;SDS011;23894;51.466;7.444;2022-08-03T03:03:13;6.70;;;3.80;;
38083;SDS011;23894;51.466;7.444;2022-08-03T03:05:14;7.93;;;3.90;;
38083;SDS011;23894;51.466;7.444;2022-08-03T03:09:16;8.20;;;3.67;;
38083;SDS011;23894;51.466;7.444;2022-08-03T03:11:17;6.50;;;3.50;;
38083;SDS011;23894;51.466;7.444;2022-08-03T03:13:20;7.00;;;4.18;;
38083;SDS011;23894;51.466;7.444;2022-08-03T03:15:22;7.22;;;3.72;;
38083;SDS011;23894;51.466;7.444;2022-08-03T03:17:24;6.95;;;4.13;;
38083;SDS011;23894;51.466;7.444;2022-08-03T03:19:26;7.28;;;3.85;;
38083;SDS011;23894;51.466;7.444;2022-08-03T03:21:29;6.15;;;3.80;;
38083;SDS011;23894;51.466;7.444;2022-08-03T03:23:30;9.15;;;4.10;;
38083;SDS011;23894;51.466;7.444;2022-08-03T03:25:35;6.65;;;3.42;;
38083;SDS011;23894;51.466;7.444;2022-08-03T03:29:36;6.78;;;3.90;;
38083;SDS011;23894;51.466;7.444;2022-08-03T03:33:38;7.23;;;3.57;;
38083;SDS011;23894;51.466;7.444;2022-08-03T03:39:40;7.90;;;3.70;;
38083;SDS011;23894;51.466;7.444;2022-08-03T03:41:41;6.95;;;3.58;;
38083;SDS011;23894;51.466;7.444;2022-08-03T03:43:42;6.90;;;4.20;;
38083;SDS011;23894;51.466;7.444;2022-08-03T03:47:44;8.73;;;3.63;;
38083;SDS011;23894;51.466;7.444;2022-08-03T03:51:45;6.27;;;3.80;;
38083;SDS011;23894;51.466;7.444;2022-08-03T03:55:56;7.85;;;3.83;;
38083;SDS011;23894;51.466;7.444;2022-08-03T03:59:57;6.43;;;3.40;;
38083;SDS011;23894;51.466;7.444;2022-08-03T04:03:58;6.17;;;3.93;;
38083;SDS011;23894;51.466;7.444;2022-08-03T04:06:19;8.93;;;3.85;;
38083;SDS011;23894;51.466;7.444;2022-08-03T04:08:38;7.20;;;3.85;;
38083;SDS011;23894;51.466;7.444;2022-08-03T04:14:43;8.38;;;3.60;;
38083;SDS011;23894;51.466;7.444;2022-08-03T04:16:22;6.00;;;3.90;;
38083;SDS011;23894;51.466;7.444;2022-08-03T04:18:27;6.93;;;4.22;;
38083;SDS011;23894;51.466;7.444;2022-08-03T04:20:30;8.07;;;4.03;;
38083;SDS011;23894;51.466;7.444;2022-08-03T04:22:34;7.35;;;3.97;;
38083;SDS011;23894;51.466;7.444;2022-08-03T04:24:38;5.38;;;3.40;;
38083;SDS011;23894;51.466;7.444;2022-08-03T04:26:42;7.38;;;3.30;;
38083;SDS011;23894;51.466;7.444;2022-08-03T04:28:45;7.28;;;3.90;;
38083;SDS011;23894;51.466;7.444;2022-08-03T04:30:48;5.78;;;3.20;;
38083;SDS011;23894;51.466;7.444;2022-08-03T04:32:51;6.53;;;3.50;;
38083;SDS011;23894;51.466;7.444;2022-08-03T04:34:53;7.40;;;3.28;;
38083;SDS011;23894;51.466;7.444;2022-08-03T04:38:59;8.20;;;3.83;;
38083;SDS011;23894;51.466;7.444;2022-08-03T04:41:03;8.25;;;3.90;;
38083;SDS011;23894;51.466;7.444;2022-08-03T04:45:05;6.95;;;3.53;;
38083;SDS011;23894;51.466;7.444;2022-08-03T04:47:06;7.82;;;3.78;;
38083;SDS011;23894;51.466;7.444;2022-08-03T04:51:08;7.70;;;3.47;;
38083;SDS011;23894;51.466;7.444;2022-08-03T04:53:09;6.13;;;3.65;;
38083;SDS011;23894;51.466;7.444;2022-08-03T04:57:11;5.83;;;3.57;;
38083;SDS011;23894;51.466;7.444;2022-08-03T05:01:12;6.47;;;3.43;;
38083;SDS011;23894;51.466;7.444;2022-08-03T05:05:13;8.73;;;3.37;;
38083;SDS011;23894;51.466;7.444;2022-08-03T05:07:15;7.03;;;3.85;;
38083;SDS011;23894;51.466;7.444;2022-08-03T05:09:16;9.32;;;3.50;;
38083;SDS011;23894;51.466;7.444;2022-08-03T05:13:17;8.33;;;3.93;;
38083;SDS011;23894;51.466;7.444;2022-08-03T05:17:18;7.50;;;3.43;;
38083;SDS011;23894;51.466;7.444;2022-08-03T05:21:19;6.40;;;3.30;;
38083;SDS011;23894;51.466;7.444;2022-08-03T05:23:20;6.55;;;3.03;;
38083;SDS011;23894;51.466;7.444;2022-08-03T05:27:21;7.67;;;3.03;;
38083;SDS011;23894;51.466;7.444;2022-08-03T05:29:21;6.63;;;3.13;;
38083;SDS011;23894;51.466;7.444;2022-08-03T05:31:22;6.38;;;3.45;;
38083;SDS011;23894;51.466;7.444;2022-08-03T05:35:23;5.80;;;3.10;;
38083;SDS011;23894;51.466;7.444;2022-08-03T05:37:24;8.60;;;3.17;;
38083;SDS011;23894;51.466;7.444;2022-08-03T05:41:25;7.10;;;2.93;;
38083;SDS011;23894;51.466;7.444;2022-08-03T05:43:25;6.50;;;2.92;;
38083;SDS011;23894;51.466;7.444;2022-08-03T05:45:26;5.18;;;2.70;;
38083;SDS011;23894;51.466;7.444;2022-08-03T05:49:27;5.10;;;2.30;;
38083;SDS011;23894;51.466;7.444;2022-08-03T05:53:28;7.90;;;2.80;;
38083;SDS011;23894;51.466;7.444;2022-08-03T05:55:32;6.00;;;3.00;;
38083;SDS011;23894;51.466;7.444;2022-08-03T05:59:34;7.97;;;2.78;;
38083;SDS011;23894;51.466;7.444;2022-08-03T06:01:37;5.90;;;2.63;;
38083;SDS011;23894;51.466;7.444;2022-08-03T06:05:38;7.57;;;2.93;;
38083;SDS011;23894;51.466;7.444;2022-08-03T06:07:39;7.07;;;2.72;;
38083;SDS011;23894;51.466;7.444;2022-08-03T06:09:39;5.45;;;2.83;;
38083;SDS011;23894;51.466;7.444;2022-08-03T06:13:41;7.75;;;2.58;;
38083;SDS011;23894;51.466;7.444;2022-08-03T06:15:42;6.47;;;2.95;;
38083;SDS011;23894;51.466;7.444;2022-08-03T06:19:52;5.43;;;2.67;;
38083;SDS011;23894;51.466;7.444;2022-08-03T06:23:53;5.50;;;2.53;;
38083;SDS011;23894;51.466;7.444;2022-08-03T06:25:54;10.18;;;2.70;;
38083;SDS011;23894;51.466;7.444;2022-08-03T06:27:55;6.07;;;2.72;;
38083;SDS011;23894;51.466;7.444;2022-08-03T06:29:55;6.40;;;2.83;;
38083;SDS011;23894;51.466;7.444;2022-08-03T06:31:56;7.95;;;4.10;;
38083;SDS011;23894;51.466;7.444;2022-08-03T06:33:56;9.80;;;3.95;;
38083;SDS011;23894;51.466;7.444;2022-08-03T06:35:57;8.93;;;3.63;;
38083;SDS011;23894;51.466;7.444;2022-08-03T06:37:57;6.97;;;2.92;;
38083;SDS011;23894;51.466;7.444;2022-08-03T06:39:58;8.05;;;2.88;;
38083;SDS011;23894;51.466;7.444;2022-08-03T06:41:59;7.18;;;2.88;;
38083;SDS011;23894;51.466;7.444;2022-08-03T06:43:59;9.02;;;2.75;;
38083;SDS011;23894;51.466;7.444;2022-08-03T06:46:00;6.82;;;2.90;;
38083;SDS011;23894;51.466;7.444;2022-08-03T06:48:01;7.25;;;2.72;;
38083;SDS011;23894;51.466;7.444;2022-08-03T06:50:07;7.63;;;3.35;;
38083;SDS011;23894;51.466;7.444;2022-08-03T06:52:08;6.90;;;3.10;;
38083;SDS011;23894;51.466;7.444;2022-08-03T06:54:09;6.25;;;2.53;;
38083;SDS011;23894;51.466;7.444;2022-08-03T06:56:09;7.20;;;2.53;;
38083;SDS011;23894;51.466;7.444;2022-08-03T06:58:10;5.95;;;2.45;;
38083;SDS011;23894;51.466;7.444;2022-08-03T07:00:11;7.43;;;2.70;;
38083;SDS011;23894;51.466;7.444;2022-08-03T07:02:12;6.43;;;2.70;;
38083;SDS011;23894;51.466;7.444;2022-08-03T07:04:12;6.82;;;2.92;;
38083;SDS011;23894;51.466;7.444;2022-08-03T07:06:13;7.03;;;2.80;;
38083;SDS011;23894;51.466;7.444;2022-08-03T07:08:14;7.43;;;2.67;;
38083;SDS011;23894;51.466;7.444;2022-08-03T07:10:14;6.20;;;2.83;;
38083;SDS011;23894;51.466;7.444;2022-08-03T07:12:15;6.30;;;2.58;;
38083;SDS011;23894;51.466;7.444;2022-08-03T07:14:15;8.50;;;2.97;;
38083;SDS011;23894;51.466;7.444;2022-08-03T07:16:16;8.05;;;2.72;;
38083;SDS011;23894;51.466;7.444;2022-08-03T07:18:16;5.97;;;2.58;;
38083;SDS011;23894;51.466;7.444;2022-08-03T07:20:17;7.20;;;2.33;;
38083;SDS011;23894;51.466;7.444;2022-08-03T07:22:18;7.05;;;2.17;;
38083;SDS011;23894;51.466;7.444;2022-08-03T07:24:19;5.57;;;2.00;;
38083;SDS011;23894;51.466;7.444;2022-08-03T07:26:20;6.57;;;2.42;;
38083;SDS011;23894;51.466;7.444;2022-08-03T07:28:20;8.18;;;2.17;;
38083;SDS011;23894;51.466;7.444;2022-08-03T07:30:21;6.15;;;2.17;;
38083;SDS011;23894;51.466;7.444;2022-08-03T07:32:21;7.32;;;2.40;;
38083;SDS011;23894;51.466;7.444;2022-08-03T07:34:22;5.57;;;2.30;;
38083;SDS011;23894;51.466;7.444;2022-08-03T07:36:23;5.95;;;2.30;;
38083;SDS011;23894;51.466;7.444;2022-08-03T07:38:24;8.82;;;2.50;;
38083;SDS011;23894;51.466;7.444;2022-08-03T07:40:24;4.53;;;2.08;;
38083;SDS011;23894;51.466;7.444;2022-08-03T07:42:26;5.53;;;2.38;;
38083;SDS011;23894;51.466;7.444;2022-08-03T07:44:27;6.10;;;2.20;;
38083;SDS011;23894;51.466;7.444;2022-08-03T07:46:27;5.95;;;2.30;;
38083;SDS011;23894;51.466;7.444;2022-08-03T07:48:28;5.70;;;2.22;;
38083;SDS011;23894;51.466;7.444;2022-08-03T07:50:28;5.78;;;2.22;;
38083;SDS011;23894;51.466;7.444;2022-08-03T07:52:29;6.95;;;2.40;;
38083;SDS011;23894;51.466;7.444;2022-08-03T07:54:48;7.28;;;2.20;;
38083;SDS011;23894;51.466;7.444;2022-08-03T07:56:49;6.75;;;2.20;;
38083;SDS011;23894;51.466;7.444;2022-08-03T07:58:50;7.00;;;2.25;;
38083;SDS011;23894;51.466;7.444;2022-08-03T08:00:51;6.40;;;2.28;;
38083;SDS011;23894;51.466;7.444;2022-08-03T08:02:52;6.05;;;2.10;;
38083;SDS011;23894;51.466;7.444;2022-08-03T08:04:52;6.13;;;2.40;;
38083;SDS011;23894;51.466;7.444;2022-08-03T08:06:53;4.65;;;2.15;;
38083;SDS011;23894;51.466;7.444;2022-08-03T08:08:53;6.60;;;2.35;;
38083;SDS011;23894;51.466;7.444;2022-08-03T08:10:58;7.97;;;2.58;;
38083;SDS011;23894;51.466;7.444;2022-08-03T08:12:59;7.10;;;2.22;;
38083;SDS011;23894;51.466;7.444;2022-08-03T08:14:59;8.93;;;2.47;;
38083;SDS011;23894;51.466;7.444;2022-08-03T08:17:00;5.07;;;2.20;;
38083;SDS011;23894;51.466;7.444;2022-08-03T08:19:01;5.40;;;2.03;;
38083;SDS011;23894;51.466;7.444;2022-08-03T08:21:01;5.75;;;2.50;;
38083;SDS011;23894;51.466;7.444;2022-08-03T08:23:03;7.63;;;2.42;;
38083;SDS011;23894;51.466;7.444;2022-08-03T08:25:05;7.53;;;2.47;;
38083;SDS011;23894;51.466;7.444;2022-08-03T08:27:06;7.22;;;2.25;;
38083;SDS011;23894;51.466;7.444;2022-08-03T08:29:07;5.95;;;2.22;;
38083;SDS011;23894;51.466;7.444;2022-08-03T08:31:08;7.72;;;2.60;;
38083;SDS011;23894;51.466;7.444;2022-08-03T08:33:08;7.30;;;2.50;;
38083;SDS011;23894;51.466;7.444;2022-08-03T08:35:09;6.43;;;2.15;;
38083;SDS011;23894;51.466;7.444;2022-08-03T08:37:10;6.72;;;2.40;;
38083;SDS011;23894;51.466;7.444;2022-08-03T08:39:11;6.55;;;2.35;;
38083;SDS011;23894;51.466;7.444;2022-08-03T08:41:12;4.90;;;2.40;;
38083;SDS011;23894;51.466;7.444;2022-08-03T08:43:13;7.05;;;2.40;;
38083;SDS011;23894;51.466;7.444;2022-08-03T08:45:14;5.15;;;2.38;;
38083;SDS011;23894;51.466;7.444;2022-08-03T08:47:15;5.30;;;2.05;;
38083;SDS011;23894;51.466;7.444;2022-08-03T08:49:22;4.60;;;2.13;;
38083;SDS011;23894;51.466;7.444;2022-08-03T08:51:27;7.10;;;2.65;;
38083;SDS011;23894;51.466;7.444;2022-08-03T08:53:30;6.05;;;2.35;;
38083;SDS011;23894;51.466;7.444;2022-08-03T08:55:36;7.40;;;2.45;;
38083;SDS011;23894;51.466;7.444;2022-08-03T08:57:38;6.43;;;2.30;;
38083;SDS011;23894;51.466;7.444;2022-08-03T08:59:44;7.45;;;2.17;;
38083;SDS011;23894;51.466;7.444;2022-08-03T09:01:45;7.57;;;2.45;;
38083;SDS011;23894;51.466;7.444;2022-08-03T09:03:45;9.98;;;2.65;;
38083;SDS011;23894;51.466;7.444;2022-08-03T09:05:47;5.45;;;2.00;;
38083;SDS011;23894;51.466;7.444;2022-08-03T09:07:47;5.75;;;2.50;;
38083;SDS011;23894;51.466;7.444;2022-08-03T09:09:48;6.18;;;2.83;;
38083;SDS011;23894;51.466;7.444;2022-08-03T09:11:49;4.65;;;2.38;;
38083;SDS011;23894;51.466;7.444;2022-08-03T09:13:50;6.20;;;2.70;;
38083;SDS011;23894;51.466;7.444;2022-08-03T09:18:28;6.38;;;2.78;;
38083;SDS011;23894;51.466;7.444;2022-08-03T09:20:31;7.25;;;2.83;;
38083;SDS011;23894;51.466;7.444;2022-08-03T09:22:32;8.48;;;3.15;;
38083;SDS011;23894;51.466;7.444;2022-08-03T09:24:33;8.85;;;3.10;;
38083;SDS011;23894;51.466;7.444;2022-08-03T09:26:34;6.05;;;3.00;;
38083;SDS011;23894;51.466;7.444;2022-08-03T09:28:35;8.18;;;3.28;;
38083;SDS011;23894;51.466;7.444;2022-08-03T09:30:38;6.25;;;3.15;;
38083;SDS011;23894;51.466;7.444;2022-08-03T09:32:40;9.32;;;3.35;;
38083;SDS011;23894;51.466;7.444;2022-08-03T09:34:41;7.95;;;3.35;;
38083;SDS011;23894;51.466;7.444;2022-08-03T09:36:43;9.63;;;3.63;;
38083;SDS011;23894;51.466;7.444;2022-08-03T09:38:49;8.15;;;3.08;;
38083;SDS011;23894;51.466;7.444;2022-08-03T09:41:02;8.10;;;3.22;;
38083;SDS011;23894;51.466;7.444;2022-08-03T09:43:17;6.53;;;3.28;;
38083;SDS011;23894;51.466;7.444;2022-08-03T09:45:24;8.73;;;3.13;;
38083;SDS011;23894;51.466;7.444;2022-08-03T09:47:26;7.97;;;3.00;;
38083;SDS011;23894;51.466;7.444;2022-08-03T09:49:32;8.50;;;3.00;;
38083;SDS011;23894;51.466;7.444;2022-08-03T09:51:32;7.60;;;2.80;;
38083;SDS011;23894;51.466;7.444;2022-08-03T09:53:54;7.50;;;2.78;;
38083;SDS011;23894;51.466;7.444;2022-08-03T09:55:58;9.52;;;3.13;;
38083;SDS011;23894;51.466;7.444;2022-08-03T09:58:06;5.95;;;3.10;;
38083;SDS011;23894;51.466;7.444;2022-08-03T10:00:13;8.95;;;2.97;;
38083;SDS011;23894;51.466;7.444;2022-08-03T10:02:22;8.05;;;3.42;;
38083;SDS011;23894;51.466;7.444;2022-08-03T10:04:24;6.78;;;2.60;;
38083;SDS011;23894;51.466;7.444;2022-08-03T10:06:25;7.85;;;3.05;;
38083;SDS011;23894;51.466;7.444;2022-08-03T10:08:26;6.22;;;3.00;;
38083;SDS011;23894;51.466;7.444;2022-08-03T10:10:26;5.60;;;2.42;;
38083;SDS011;23894;51.466;7.444;2022-08-03T10:12:42;6.70;;;2.50;;
38083;SDS011;23894;51.466;7.444;2022-08-03T10:14:44;8.02;;;2.90;;
38083;SDS011;23894;51.466;7.444;2022-08-03T10:16:45;9.20;;;2.50;;
38083;SDS011;23894;51.466;7.444;2022-08-03T10:18:47;7.07;;;3.20;;
38083;SDS011;23894;51.466;7.444;2022-08-03T10:20:48;6.43;;;2.65;;
38083;SDS011;23894;51.466;7.444;2022-08-03T10:22:57;7.07;;;2.55;;
38083;SDS011;23894;51.466;7.444;2022-08-03T10:25:01;7.70;;;2.38;;
38083;SDS011;23894;51.466;7.444;2022-08-03T10:27:07;5.63;;;2.60;;
38083;SDS011;23894;51.466;7.444;2022-08-03T10:29:11;7.82;;;2.50;;
38083;SDS011;23894;51.466;7.444;2022-08-03T10:31:17;6.32;;;2.47;;
38083;SDS011;23894;51.466;7.444;2022-08-03T10:33:23;6.75;;;2.13;;
38083;SDS011;23894;51.466;7.444;2022-08-03T10:35:27;7.07;;;2.50;;
38083;SDS011;23894;51.466;7.444;2022-08-03T10:37:29;7.57;;;2.60;;
38083;SDS011;23894;51.466;7.444;2022-08-03T10:39:31;8.70;;;2.80;;
38083;SDS011;23894;51.466;7.444;2022-08-03T10:41:35;7.43;;;2.08;;
38083;SDS011;23894;51.466;7.444;2022-08-03T10:43:46;6.60;;;2.75;;
38083;SDS011;23894;51.466;7.444;2022-08-03T10:45:51;7.45;;;2.35;;
38083;SDS011;23894;51.466;7.444;2022-08-03T10:47:52;8.73;;;2.63;;
38083;SDS011;23894;51.466;7.444;2022-08-03T10:49:54;6.90;;;2.00;;
38083;SDS011;23894;51.466;7.444;2022-08-03T10:51:56;6.80;;;2.45;;
38083;SDS011;23894;51.466;7.444;2022-08-03T10:53:57;5.80;;;2.45;;
38083;SDS011;23894;51.466;7.444;2022-08-03T10:55:58;7.22;;;2.55;;
38083;SDS011;23894;51.466;7.444;2022-08-03T11:00:49;4.85;;;2.20;;
38083;SDS011;23894;51.466;7.444;2022-08-03T11:03:06;5.90;;;2.33;;
38083;SDS011;23894;51.466;7.444;2022-08-03T11:05:24;7.47;;;2.05;;
38083;SDS011;23894;51.466;7.444;2022-08-03T11:07:27;7.43;;;2.20;;
38083;SDS011;23894;51.466;7.444;2022-08-03T11:09:27;4.40;;;2.08;;
38083;SDS011;23894;51.466;7.444;2022-08-03T11:11:44;6.90;;;2.17;;
38083;SDS011;23894;51.466;7.444;2022-08-03T11:14:00;5.45;;;2.20;;
38083;SDS011;23894;51.466;7.444;2022-08-03T11:16:17;6.22;;;2.13;;
38083;SDS011;23894;51.466;7.444;2022-08-03T11:18:19;8.07;;;2.17;;
38083;SDS011;23894;51.466;7.444;2022-08-03T11:24:56;5.85;;;2.20;;
38083;SDS011;23894;51.466;7.444;2022-08-03T11:29:29;5.93;;;2.00;;
38083;SDS011;23894;51.466;7.444;2022-08-03T11:33:30;5.50;;;1.80;;
38083;SDS011;23894;51.466;7.444;2022-08-03T11:35:31;5.72;;;2.10;;
38083;SDS011;23894;51.466;7.444;2022-08-03T11:37:35;5.85;;;1.95;;
38083;SDS011;23894;51.466;7.444;2022-08-03T11:39:55;6.57;;;2.22;;
38083;SDS011;23894;51.466;7.444;2022-08-03T11:41:56;8.10;;;2.17;;
38083;SDS011;23894;51.466;7.444;2022-08-03T11:43:56;8.95;;;2.03;;
38083;SDS011;23894;51.466;7.444;2022-08-03T11:47:59;8.13;;;2.17;;
38083;SDS011;23894;51.466;7.444;2022-08-03T11:50:21;8.55;;;2.42;;
38083;SDS011;23894;51.466;7.444;2022-08-03T11:52:23;6.90;;;2.47;;
38083;SDS011;23894;51.466;7.444;2022-08-03T11:54:24;5.80;;;2.15;;
38083;SDS011;23894;51.466;7.444;2022-08-03T11:56:25;5.90;;;2.00;;
38083;SDS011;23894;51.466;7.444;2022-08-03T11:58:26;5.43;;;2.13;;
38083;SDS011;23894;51.466;7.444;2022-08-03T12:00:28;6.78;;;2.50;;
38083;SDS011;23894;51.466;7.444;2022-08-03T12:02:30;7.72;;;2.47;;
38083;SDS011;23894;51.466;7.444;2022-08-03T12:04:31;7.90;;;2.63;;
38083;SDS011;23894;51.466;7.444;2022-08-03T12:06:57;5.72;;;2.00;;
38083;SDS011;23894;51.466;7.444;2022-08-03T12:09:01;8.82;;;2.40;;
38083;SDS011;23894;51.466;7.444;2022-08-03T12:11:16;10.95;;;2.20;;
38083;SDS011;23894;51.466;7.444;2022-08-03T12:13:17;6.25;;;2.10;;
38083;SDS011;23894;51.466;7.444;2022-08-03T12:15:23;9.35;;;2.20;;
38083;SDS011;23894;51.466;7.444;2022-08-03T12:17:46;8.07;;;2.40;;
38083;SDS011;23894;51.466;7.444;2022-08-03T12:19:48;7.13;;;2.42;;
38083;SDS011;23894;51.466;7.444;2022-08-03T12:21:49;6.97;;;2.50;;
38083;SDS011;23894;51.466;7.444;2022-08-03T12:23:50;7.47;;;2.47;;
38083;SDS011;23894;51.466;7.444;2022-08-03T12:26:04;6.25;;;2.13;;
38083;SDS011;23894;51.466;7.444;2022-08-03T12:28:13;6.20;;;2.00;;
38083;SDS011;23894;51.466;7.444;2022-08-03T12:30:16;5.40;;;1.90;;
38083;SDS011;23894;51.466;7.444;2022-08-03T12:32:17;6.55;;;2.22;;
38083;SDS011;23894;51.466;7.444;2022-08-03T12:34:17;7.07;;;1.98;;
38083;SDS011;23894;51.466;7.444;2022-08-03T12:36:18;6.70;;;2.13;;
38083;SDS011;23894;51.466;7.444;2022-08-03T12:38:20;6.43;;;2.22;;
38083;SDS011;23894;51.466;7.444;2022-08-03T12:40:24;6.10;;;2.10;;
38083;SDS011;23894;51.466;7.444;2022-08-03T12:42:34;6.97;;;2.05;;
38083;SDS011;23894;51.466;7.444;2022-08-03T12:44:36;7.78;;;2.05;;
38083;SDS011;23894;51.466;7.444;2022-08-03T12:46:40;5.78;;;1.80;;
38083;SDS011;23894;51.466;7.444;2022-08-03T12:51:08;4.88;;;1.73;;
38083;SDS011;23894;51.466;7.444;2022-08-03T12:53:09;6.13;;;1.85;;
38083;SDS011;23894;51.466;7.444;2022-08-03T12:55:17;5.90;;;1.90;;
38083;SDS011;23894;51.466;7.444;2022-08-03T12:57:19;6.95;;;2.22;;
38083;SDS011;23894;51.466;7.444;2022-08-03T12:59:23;4.55;;;1.70;;
38083;SDS011;23894;51.466;7.444;2022-08-03T13:01:34;6.30;;;1.90;;
38083;SDS011;23894;51.466;7.444;2022-08-03T13:03:43;6.72;;;2.15;;
38083;SDS011;23894;51.466;7.444;2022-08-03T13:05:47;6.20;;;1.90;;
38083;SDS011;23894;51.466;7.444;2022-08-03T13:07:48;4.90;;;1.80;;
38083;SDS011;23894;51.466;7.444;2022-08-03T13:09:52;5.35;;;1.52;;
38083;SDS011;23894;51.466;7.444;2022-08-03T13:12:05;6.47;;;1.90;;
38083;SDS011;23894;51.466;7.444;2022-08-03T13:14:10;6.38;;;1.58;;
38083;SDS011;23894;51.466;7.444;2022-08-03T13:16:11;5.75;;;2.10;;
38083;SDS011;23894;51.466;7.444;2022-08-03T13:18:11;6.38;;;1.92;;
38083;SDS011;23894;51.466;7.444;2022-08-03T13:20:12;5.35;;;1.88;;
38083;SDS011;23894;51.466;7.444;2022-08-03T13:22:16;5.63;;;1.90;;
38083;SDS011;23894;51.466;7.444;2022-08-03T13:24:18;5.40;;;1.95;;
38083;SDS011;23894;51.466;7.444;2022-08-03T13:26:18;5.47;;;1.70;;
38083;SDS011;23894;51.466;7.444;2022-08-03T13:28:19;5.30;;;1.63;;
38083;SDS011;23894;51.466;7.444;2022-08-03T13:30:19;7.53;;;1.60;;
38083;SDS011;23894;51.466;7.444;2022-08-03T13:32:20;6.05;;;1.88;;
38083;SDS011;23894;51.466;7.444;2022-08-03T13:34:21;5.53;;;1.65;;
38083;SDS011;23894;51.466;7.444;2022-08-03T13:36:22;4.35;;;1.50;;
38083;SDS011;23894;51.466;7.444;2022-08-03T13:38:24;8.07;;;1.88;;
38083;SDS011;23894;51.466;7.444;2022-08-03T13:40:24;7.03;;;1.73;;
38083;SDS011;23894;51.466;7.444;2022-08-03T13:42:25;4.97;;;1.50;;
38083;SDS011;23894;51.466;7.444;2022-08-03T13:44:30;9.57;;;1.90;;
38083;SDS011;23894;51.466;7.444;2022-08-03T13:46:31;7.35;;;1.80;;
38083;SDS011;23894;51.466;7.444;2022-08-03T13:48:33;7.00;;;1.70;;
38083;SDS011;23894;51.466;7.444;2022-08-03T13:50:33;5.10;;;1.60;;
38083;SDS011;23894;51.466;7.444;2022-08-03T13:52:34;5.82;;;1.65;;
38083;SDS011;23894;51.466;7.444;2022-08-03T13:54:35;7.40;;;1.48;;
38083;SDS011;23894;51.466;7.444;2022-08-03T13:56:35;6.00;;;1.60;;
38083;SDS011;23894;51.466;7.444;2022-08-03T13:58:36;8.77;;;1.83;;
38083;SDS011;23894;51.466;7.444;2022-08-03T14:00:37;4.97;;;1.75;;
38083;SDS011;23894;51.466;7.444;2022-08-03T14:02:38;6.00;;;1.63;;
38083;SDS011;23894;51.466;7.444;2022-08-03T14:04:39;4.80;;;1.40;;
38083;SDS011;23894;51.466;7.444;2022-08-03T14:06:39;5.35;;;1.55;;
38083;SDS011;23894;51.466;7.444;2022-08-03T14:08:40;5.45;;;1.20;;
38083;SDS011;23894;51.466;7.444;2022-08-03T14:10:42;5.68;;;1.50;;
38083;SDS011;23894;51.466;7.444;2022-08-03T14:12:43;6.00;;;1.42;;
38083;SDS011;23894;51.466;7.444;2022-08-03T14:14:44;6.00;;;1.90;;